createdAt,value
2024-03-28T00:00:01.338Z,10.2
2024-03-28T00:01:01.499Z,10.2
2024-03-28T00:02:01.383Z,10.2
2024-03-28T00:03:01.481Z,10.2
2024-03-28T00:04:01.334Z,10.2
2024-03-28T00:05:01.385Z,10.2
2024-03-28T00:06:01.410Z,10.2
2024-03-28T00:07:01.418Z,10.1
2024-03-28T00:08:01.565Z,10.1
2024-03-28T00:09:01.351Z,10.1
2024-03-28T00:10:01.487Z,10.2
2024-03-28T00:11:01.370Z,10.2
2024-03-28T00:12:01.387Z,10.2
2024-03-28T00:13:01.454Z,10.1
2024-03-28T00:14:01.328Z,10.2
2024-03-28T00:15:01.581Z,10.2
2024-03-28T00:16:01.342Z,10.2
2024-03-28T00:17:01.472Z,10.2
2024-03-28T00:18:01.572Z,10.2
2024-03-28T00:19:03.611Z,10.1
2024-03-28T00:21:01.551Z,10.2
2024-03-28T00:22:01.447Z,10.2
2024-03-28T00:23:01.488Z,10.1
2024-03-28T00:24:01.392Z,10.1
2024-03-28T00:25:01.498Z,10.1
2024-03-28T00:26:01.361Z,10.1
2024-03-28T00:27:01.506Z,10.1
2024-03-28T00:28:01.436Z,10.1
2024-03-28T00:29:01.406Z,10.1
2024-03-28T00:30:01.551Z,10.1
2024-03-28T00:31:01.503Z,10.1
2024-03-28T00:32:01.543Z,10.1
2024-03-28T00:33:01.401Z,10.1
2024-03-28T00:34:01.403Z,10.1
2024-03-28T00:35:01.432Z,10.1
2024-03-28T00:36:01.532Z,10.1
2024-03-28T00:37:01.379Z,10.1
2024-03-28T00:38:01.524Z,10.1
2024-03-28T00:39:01.323Z,10.1
2024-03-28T00:40:01.509Z,10.1
2024-03-28T00:42:01.526Z,10.1
2024-03-28T00:44:01.425Z,10.1
2024-03-28T00:45:01.592Z,10.1
2024-03-28T00:46:01.374Z,10.2
2024-03-28T00:47:01.409Z,10.2
2024-03-28T00:48:01.334Z,10.2
2024-03-28T00:49:01.428Z,10.2
2024-03-28T00:50:01.324Z,10.2
2024-03-28T00:51:01.618Z,10.2
2024-03-28T00:53:01.511Z,10.2
2024-03-28T00:54:01.523Z,10.2
2024-03-28T00:55:01.595Z,10.2
2024-03-28T00:56:01.371Z,10.2
2024-03-28T00:57:01.522Z,10.2
2024-03-28T00:58:01.440Z,10.2
2024-03-28T00:59:01.355Z,10.2
2024-03-28T01:00:01.586Z,10.3
2024-03-28T01:01:01.684Z,10.3
2024-03-28T01:03:01.498Z,10.3
2024-03-28T01:04:01.460Z,10.3
2024-03-28T01:05:01.501Z,10.3
2024-03-28T01:06:01.458Z,10.3
2024-03-28T01:07:01.525Z,10.3
2024-03-28T01:08:01.522Z,10.3
2024-03-28T01:09:01.459Z,10.3
2024-03-28T01:11:01.454Z,10.3
2024-03-28T01:12:01.511Z,10.3
2024-03-28T01:13:01.447Z,10.3
2024-03-28T01:14:01.410Z,10.3
2024-03-28T01:15:01.546Z,10.2
2024-03-28T01:17:01.463Z,10.2
2024-03-28T01:18:02.068Z,10.2
2024-03-28T01:20:01.483Z,10.2
2024-03-28T01:21:01.379Z,10.2
2024-03-28T01:22:01.496Z,10.2
2024-03-28T01:23:01.377Z,10.2
2024-03-28T01:24:01.546Z,10.1
2024-03-28T01:25:01.442Z,10.1
2024-03-28T01:26:01.343Z,10.1
2024-03-28T01:27:01.471Z,10.1
2024-03-28T01:28:01.397Z,10.1
2024-03-28T01:29:01.469Z,10.1
2024-03-28T01:31:01.450Z,10
2024-03-28T01:32:01.553Z,10
2024-03-28T01:33:01.504Z,9.9
2024-03-28T01:35:01.439Z,9.9
2024-03-28T01:36:01.530Z,9.9
2024-03-28T01:37:01.373Z,9.9
2024-03-28T01:38:01.400Z,9.9
2024-03-28T01:39:01.362Z,9.9
2024-03-28T01:40:01.540Z,9.9
2024-03-28T01:41:01.384Z,9.9
2024-03-28T01:42:01.447Z,9.9
2024-03-28T01:43:01.444Z,9.9
2024-03-28T01:44:01.476Z,9.9
2024-03-28T01:45:01.469Z,9.9
2024-03-28T01:46:05.607Z,9.9
2024-03-28T01:49:01.526Z,9.9
2024-03-28T01:50:01.423Z,9.9
2024-03-28T01:51:01.499Z,9.8
2024-03-28T01:52:01.559Z,9.8
2024-03-28T01:53:01.507Z,9.8
2024-03-28T01:54:01.369Z,9.8
2024-03-28T01:55:01.348Z,9.8
2024-03-28T01:56:01.359Z,9.7
2024-03-28T01:57:01.326Z,9.6
2024-03-28T01:58:01.389Z,9.6
2024-03-28T01:59:01.338Z,9.6
2024-03-28T02:00:01.343Z,9.5
2024-03-28T02:01:01.309Z,9.4
2024-03-28T02:02:01.401Z,9.4
2024-03-28T02:03:01.518Z,9.4
2024-03-28T02:04:01.354Z,9.4
2024-03-28T02:05:01.644Z,9.3
2024-03-28T02:06:01.360Z,9.3
2024-03-28T02:07:01.423Z,9.2
2024-03-28T02:09:01.363Z,9.2
2024-03-28T02:10:01.362Z,9.1
2024-03-28T02:11:01.418Z,9.1
2024-03-28T02:12:01.359Z,9.1
2024-03-28T02:13:01.450Z,9
2024-03-28T02:14:01.331Z,9
2024-03-28T02:15:01.418Z,8.9
2024-03-28T02:16:01.364Z,8.9
2024-03-28T02:17:01.412Z,8.9
2024-03-28T02:18:01.464Z,8.8
2024-03-28T02:19:01.321Z,8.8
2024-03-28T02:20:01.406Z,8.8
2024-03-28T02:21:01.366Z,8.8
2024-03-28T02:22:01.384Z,8.7
2024-03-28T02:23:01.438Z,8.7
2024-03-28T02:24:01.350Z,8.6
2024-03-28T02:25:01.420Z,8.6
2024-03-28T02:26:01.342Z,8.6
2024-03-28T02:27:01.383Z,8.6
2024-03-28T02:28:01.414Z,8.6
2024-03-28T02:29:01.380Z,8.6
2024-03-28T02:30:01.500Z,8.6
2024-03-28T02:31:01.365Z,8.6
2024-03-28T02:32:01.325Z,8.6
2024-03-28T02:33:01.406Z,8.6
2024-03-28T02:34:01.354Z,8.6
2024-03-28T02:35:01.394Z,8.6
2024-03-28T02:36:01.335Z,8.5
2024-03-28T02:37:01.371Z,8.5
2024-03-28T02:38:01.392Z,8.5
2024-03-28T02:39:01.360Z,8.5
2024-03-28T02:40:01.442Z,8.5
2024-03-28T02:41:01.336Z,8.4
2024-03-28T02:42:01.391Z,8.4
2024-03-28T02:43:01.382Z,8.4
2024-03-28T02:44:01.530Z,8.4
2024-03-28T02:45:01.324Z,8.4
2024-03-28T02:46:01.389Z,8.4
2024-03-28T02:47:01.333Z,8.4
2024-03-28T02:48:01.401Z,8.3
2024-03-28T02:49:01.384Z,8.2
2024-03-28T02:50:01.427Z,8.1
2024-03-28T02:51:01.509Z,8.1
2024-03-28T02:52:01.384Z,8.1
2024-03-28T02:54:01.408Z,8.1
2024-03-28T02:55:01.395Z,8
2024-03-28T02:56:01.371Z,8
2024-03-28T02:58:01.387Z,7.9
2024-03-28T02:59:01.358Z,7.9
2024-03-28T03:00:01.382Z,7.9
2024-03-28T03:01:01.396Z,7.9
2024-03-28T03:02:01.464Z,7.9
2024-03-28T03:03:01.383Z,7.9
2024-03-28T03:04:01.319Z,7.8
2024-03-28T03:05:01.450Z,7.8
2024-03-28T03:06:01.356Z,7.8
2024-03-28T03:07:01.384Z,7.8
2024-03-28T03:08:01.396Z,7.8
2024-03-28T03:09:01.381Z,7.8
2024-03-28T03:10:01.343Z,7.8
2024-03-28T03:11:01.380Z,7.8
2024-03-28T03:12:01.403Z,7.8
2024-03-28T03:13:01.516Z,7.8
2024-03-28T03:14:01.316Z,7.8
2024-03-28T03:15:01.449Z,7.7
2024-03-28T03:16:01.374Z,7.7
2024-03-28T03:17:01.313Z,7.7
2024-03-28T03:18:01.387Z,7.7
2024-03-28T03:19:01.386Z,7.7
2024-03-28T03:20:01.514Z,7.7
2024-03-28T03:21:01.361Z,7.7
2024-03-28T03:22:01.321Z,7.7
2024-03-28T03:23:01.385Z,7.6
2024-03-28T03:24:01.373Z,7.6
2024-03-28T03:25:01.470Z,7.6
2024-03-28T03:26:01.350Z,7.6
2024-03-28T03:27:01.430Z,7.6
2024-03-28T03:28:01.385Z,7.6
2024-03-28T03:29:01.422Z,7.6
2024-03-28T03:30:01.371Z,7.6
2024-03-28T03:31:01.356Z,7.6
2024-03-28T03:32:01.380Z,7.6
2024-03-28T03:33:01.559Z,7.6
2024-03-28T03:34:01.380Z,7.5
2024-03-28T03:35:01.402Z,7.4
2024-03-28T03:36:01.369Z,7.4
2024-03-28T03:38:01.366Z,7.4
2024-03-28T03:39:01.346Z,7.4
2024-03-28T03:40:01.412Z,7.4
2024-03-28T03:41:01.335Z,7.4
2024-03-28T03:42:01.400Z,7.3
2024-03-28T03:43:01.426Z,7.3
2024-03-28T03:44:01.338Z,7.3
2024-03-28T03:45:01.381Z,7.2
2024-03-28T03:46:01.327Z,7.2
2024-03-28T03:47:01.422Z,7.1
2024-03-28T03:48:02.004Z,7.1
2024-03-28T03:50:01.412Z,7.1
2024-03-28T03:52:01.336Z,7
2024-03-28T03:53:01.438Z,7
2024-03-28T03:54:01.349Z,6.9
2024-03-28T03:55:01.424Z,6.9
2024-03-28T03:56:01.344Z,6.9
2024-03-28T03:57:01.435Z,6.9
2024-03-28T03:58:01.342Z,6.9
2024-03-28T03:59:01.373Z,6.8
2024-03-28T04:00:01.388Z,6.8
2024-03-28T04:01:01.377Z,6.8
2024-03-28T04:02:01.389Z,6.8
2024-03-28T04:03:01.359Z,6.8
2024-03-28T04:04:01.392Z,6.8
2024-03-28T04:05:01.419Z,6.8
2024-03-28T04:06:01.339Z,6.7
2024-03-28T04:07:01.382Z,6.7
2024-03-28T04:08:01.385Z,6.6
2024-03-28T04:09:01.340Z,6.6
2024-03-28T04:10:01.344Z,6.6
2024-03-28T04:11:01.410Z,6.6
2024-03-28T04:12:01.354Z,6.6
2024-03-28T04:13:01.418Z,6.5
2024-03-28T04:14:01.367Z,6.4
2024-03-28T04:15:01.460Z,6.4
2024-03-28T04:16:01.480Z,6.4
2024-03-28T04:17:01.287Z,6.4
2024-03-28T04:18:01.538Z,6.4
2024-03-28T04:19:01.380Z,6.4
2024-03-28T04:20:01.405Z,6.4
2024-03-28T04:21:01.369Z,6.3
2024-03-28T04:22:01.395Z,6.3
2024-03-28T04:23:01.337Z,6.3
2024-03-28T04:24:01.436Z,6.3
2024-03-28T04:25:01.331Z,6.3
2024-03-28T04:26:01.327Z,6.3
2024-03-28T04:27:07.713Z,6.3
2024-03-28T04:29:01.376Z,6.2
2024-03-28T04:30:03.366Z,6.2
2024-03-28T04:32:01.389Z,6.2
2024-03-28T04:33:01.507Z,6.2
2024-03-28T04:34:01.573Z,6.2
2024-03-28T04:35:01.296Z,6.2
2024-03-28T04:36:01.372Z,6.2
2024-03-28T04:37:01.303Z,6.2
2024-03-28T04:38:01.424Z,6.2
2024-03-28T04:39:01.368Z,6.2
2024-03-28T04:40:01.397Z,6.2
2024-03-28T04:41:01.381Z,6.2
2024-03-28T04:42:01.327Z,6.2
2024-03-28T04:43:01.422Z,6.2
2024-03-28T04:44:01.389Z,6.2
2024-03-28T04:45:01.460Z,6.2
2024-03-28T04:46:01.391Z,6.2
2024-03-28T04:47:01.444Z,6.2
2024-03-28T04:48:01.469Z,6.2
2024-03-28T04:49:01.338Z,6.1
2024-03-28T04:50:01.540Z,6.2
2024-03-28T04:51:01.342Z,6.1
2024-03-28T04:52:01.401Z,6.2
2024-03-28T04:53:01.333Z,6.2
2024-03-28T04:54:01.427Z,6.2
2024-03-28T04:55:01.355Z,6.2
2024-03-28T04:56:01.425Z,6.2
2024-03-28T04:57:01.345Z,6.2
2024-03-28T04:58:01.451Z,6.2
2024-03-28T04:59:01.359Z,6.2
2024-03-28T05:00:01.456Z,6.2
2024-03-28T05:02:01.371Z,6.2
2024-03-28T05:03:01.380Z,6.2
2024-03-28T05:04:01.414Z,6.2
2024-03-28T05:05:01.355Z,6.2
2024-03-28T05:06:01.433Z,6.2
2024-03-28T05:07:01.437Z,6.2
2024-03-28T05:08:01.354Z,6.2
2024-03-28T05:09:01.369Z,6.2
2024-03-28T05:10:01.399Z,6.2
2024-03-28T05:11:01.375Z,6.2
2024-03-28T05:12:01.314Z,6.2
2024-03-28T05:13:01.368Z,6.2
2024-03-28T05:15:01.440Z,6.2
2024-03-28T05:16:01.395Z,6.2
2024-03-28T05:17:01.429Z,6.2
2024-03-28T05:18:01.468Z,6.2
2024-03-28T05:19:01.415Z,6.2
2024-03-28T05:20:01.350Z,6.2
2024-03-28T05:21:01.447Z,6.2
2024-03-28T05:22:01.380Z,6.2
2024-03-28T05:23:01.401Z,6.2
2024-03-28T05:24:01.445Z,6.2
2024-03-28T05:25:01.377Z,6.2
2024-03-28T05:26:01.411Z,6.2
2024-03-28T05:27:01.323Z,6.2
2024-03-28T05:28:01.420Z,6.2
2024-03-28T05:29:01.411Z,6.2
2024-03-28T05:30:01.491Z,6.2
2024-03-28T05:31:01.313Z,6.2
2024-03-28T05:32:01.422Z,6.2
2024-03-28T05:33:01.389Z,6.2
2024-03-28T05:34:01.438Z,6.2
2024-03-28T05:35:01.342Z,6.2
2024-03-28T05:36:01.420Z,6.2
2024-03-28T05:37:01.429Z,6.2
2024-03-28T05:38:01.347Z,6.2
2024-03-28T05:39:01.361Z,6.2
2024-03-28T05:40:01.441Z,6.2
2024-03-28T05:41:01.483Z,6.2
2024-03-28T05:43:01.382Z,6.2
2024-03-28T05:44:01.423Z,6.2
2024-03-28T05:45:01.351Z,6.2
2024-03-28T05:46:01.461Z,6.2
2024-03-28T05:47:01.318Z,6.2
2024-03-28T05:48:01.334Z,6.2
2024-03-28T05:49:01.388Z,6.2
2024-03-28T05:50:01.423Z,6.2
2024-03-28T05:51:01.374Z,6.2
2024-03-28T05:52:01.310Z,6.2
2024-03-28T05:53:01.408Z,6.2
2024-03-28T05:54:01.373Z,6.2
2024-03-28T05:55:01.407Z,6.3
2024-03-28T05:56:01.355Z,6.3
2024-03-28T05:57:01.415Z,6.3
2024-03-28T05:58:01.455Z,6.3
2024-03-28T05:59:01.340Z,6.3
2024-03-28T06:00:01.513Z,6.3
2024-03-28T06:01:01.380Z,6.3
2024-03-28T06:02:01.370Z,6.3
2024-03-28T06:03:01.385Z,6.3
2024-03-28T06:04:01.337Z,6.4
2024-03-28T06:05:01.402Z,6.4
2024-03-28T06:06:01.364Z,6.4
2024-03-28T06:07:01.296Z,6.4
2024-03-28T06:08:01.444Z,6.4
2024-03-28T06:09:01.354Z,6.4
2024-03-28T06:10:01.515Z,6.4
2024-03-28T06:11:01.402Z,6.4
2024-03-28T06:13:01.483Z,6.5
2024-03-28T06:14:01.347Z,6.5
2024-03-28T06:15:01.457Z,6.5
2024-03-28T06:16:01.465Z,6.6
2024-03-28T06:17:01.400Z,6.6
2024-03-28T06:18:01.437Z,6.6
2024-03-28T06:19:01.333Z,6.6
2024-03-28T06:20:01.452Z,6.6
2024-03-28T06:21:01.483Z,6.6
2024-03-28T06:22:01.370Z,6.6
2024-03-28T06:23:01.335Z,6.6
2024-03-28T06:24:01.419Z,6.6
2024-03-28T06:25:01.367Z,6.6
2024-03-28T06:26:01.396Z,6.6
2024-03-28T06:27:01.363Z,6.6
2024-03-28T06:28:01.388Z,6.6
2024-03-28T06:29:01.452Z,6.6
2024-03-28T06:30:01.466Z,6.7
2024-03-28T06:31:01.542Z,6.7
2024-03-28T06:32:01.287Z,6.8
2024-03-28T06:33:01.396Z,6.8
2024-03-28T06:34:01.373Z,6.8
2024-03-28T06:35:01.468Z,6.8
2024-03-28T06:36:01.383Z,6.9
2024-03-28T06:37:01.390Z,6.9
2024-03-28T06:38:01.424Z,6.8
2024-03-28T06:39:01.366Z,6.9
2024-03-28T06:40:01.419Z,6.9
2024-03-28T06:41:01.386Z,6.9
2024-03-28T06:42:01.406Z,6.9
2024-03-28T06:43:01.325Z,6.9
2024-03-28T06:44:01.388Z,6.9
2024-03-28T06:45:01.356Z,7
2024-03-28T06:46:01.366Z,7
2024-03-28T06:47:01.412Z,7.1
2024-03-28T06:48:01.457Z,7.1
2024-03-28T06:49:01.403Z,7.1
2024-03-28T06:50:01.340Z,7.1
2024-03-28T06:51:01.360Z,7.2
2024-03-28T06:52:01.307Z,7.4
2024-03-28T06:53:01.398Z,7.4
2024-03-28T06:54:01.346Z,7.4
2024-03-28T06:55:01.404Z,7.6
2024-03-28T06:56:01.380Z,7.7
2024-03-28T06:57:01.428Z,7.8
2024-03-28T06:58:01.390Z,7.9
2024-03-28T07:00:01.466Z,8.1
2024-03-28T07:01:01.329Z,8.1
2024-03-28T07:02:01.583Z,8
2024-03-28T07:04:01.432Z,7.9
2024-03-28T07:05:01.480Z,7.8
2024-03-28T07:06:23.984Z,7.8
2024-03-28T07:08:01.464Z,7.8
2024-03-28T07:09:01.429Z,7.8
2024-03-28T07:10:01.539Z,8
2024-03-28T07:11:01.385Z,7.9
2024-03-28T07:12:01.414Z,7.9
2024-03-28T07:13:01.356Z,8.2
2024-03-28T07:14:01.427Z,8.2
2024-03-28T07:15:01.454Z,8.3
2024-03-28T07:16:01.365Z,8.2
2024-03-28T07:17:01.440Z,8.1
2024-03-28T07:18:01.363Z,8.2
2024-03-28T07:19:01.353Z,8.4
2024-03-28T07:20:01.543Z,8.4
2024-03-28T07:21:01.319Z,8.2
2024-03-28T07:22:01.415Z,8.2
2024-03-28T07:23:01.494Z,8.2
2024-03-28T07:24:01.386Z,8.3
2024-03-28T07:25:01.371Z,8.4
2024-03-28T07:26:01.379Z,8.6
2024-03-28T07:27:01.382Z,8.6
2024-03-28T07:28:01.367Z,8.8
2024-03-28T07:29:05.186Z,9.1
2024-03-28T07:31:01.393Z,9.1
2024-03-28T07:32:01.464Z,9.2
2024-03-28T07:33:01.353Z,9.4
2024-03-28T07:34:01.368Z,9.4
2024-03-28T07:35:01.423Z,9.6
2024-03-28T07:36:01.426Z,9.4
2024-03-28T07:37:01.371Z,9.4
2024-03-28T07:38:01.378Z,9.4
2024-03-28T07:39:01.442Z,9.5
2024-03-28T07:40:01.419Z,9.5
2024-03-28T07:41:01.504Z,9.6
2024-03-28T07:42:01.364Z,9.6
2024-03-28T07:43:01.461Z,9.6
2024-03-28T07:44:01.347Z,9.5
2024-03-28T07:45:01.361Z,9.5
2024-03-28T07:46:01.449Z,9.6
2024-03-28T07:47:01.360Z,9.7
2024-03-28T07:48:01.417Z,9.7
2024-03-28T07:49:01.342Z,9.7
2024-03-28T07:50:01.406Z,9.8
2024-03-28T07:51:01.458Z,9.7
2024-03-28T07:52:01.351Z,9.8
2024-03-28T07:53:01.363Z,9.9
2024-03-28T07:54:01.396Z,10.1
2024-03-28T07:55:01.344Z,10.1
2024-03-28T07:56:01.374Z,10.1
2024-03-28T07:57:01.414Z,10.2
2024-03-28T07:58:01.372Z,10.2
2024-03-28T07:59:01.408Z,10.2
2024-03-28T08:00:01.503Z,10.2
2024-03-28T08:01:01.366Z,10.2
2024-03-28T08:02:01.392Z,10.3
2024-03-28T08:03:01.587Z,10.4
2024-03-28T08:04:01.404Z,10.6
2024-03-28T08:05:01.382Z,10.6
2024-03-28T08:06:01.330Z,10.4
2024-03-28T08:07:01.427Z,10.4
2024-03-28T08:08:01.574Z,10.9
2024-03-28T08:10:01.431Z,11.1
2024-03-28T08:12:01.426Z,10.8
2024-03-28T08:13:01.504Z,11.1
2024-03-28T08:14:01.372Z,11.1
2024-03-28T08:16:01.361Z,11.2
2024-03-28T08:17:01.398Z,11.1
2024-03-28T08:18:01.350Z,11.2
2024-03-28T08:19:01.385Z,11.2
2024-03-28T08:20:01.383Z,11.4
2024-03-28T08:21:01.525Z,11.5
2024-03-28T08:22:01.364Z,11.4
2024-03-28T08:23:01.457Z,11.5
2024-03-28T08:24:01.400Z,11.6
2024-03-28T08:25:01.476Z,11.9
2024-03-28T08:26:01.348Z,12
2024-03-28T08:27:01.419Z,12
2024-03-28T08:28:01.366Z,11.9
2024-03-28T08:29:01.374Z,11.8
2024-03-28T08:30:01.411Z,11.8
2024-03-28T08:31:01.426Z,12.1
2024-03-28T08:32:01.388Z,12.5
2024-03-28T08:33:01.328Z,12.7
2024-03-28T08:34:01.364Z,12.6
2024-03-28T08:35:01.362Z,12.7
2024-03-28T08:36:01.410Z,12.4
2024-03-28T08:38:01.450Z,12.6
2024-03-28T08:39:01.401Z,12.9
2024-03-28T08:40:01.430Z,13.3
2024-03-28T08:41:01.350Z,13.8
2024-03-28T08:42:01.351Z,14
2024-03-28T08:43:04.265Z,14.2
2024-03-28T08:45:01.491Z,13.8
2024-03-28T08:46:01.379Z,13.8
2024-03-28T08:47:01.398Z,13.9
2024-03-28T08:48:01.359Z,14.4
2024-03-28T08:49:01.435Z,14.5
2024-03-28T08:50:01.413Z,14.5
2024-03-28T08:51:01.483Z,14.8
2024-03-28T08:52:01.425Z,14.9
2024-03-28T08:53:01.570Z,15.2
2024-03-28T08:54:01.435Z,15.2
2024-03-28T08:55:01.410Z,15.7
2024-03-28T08:56:01.459Z,16
2024-03-28T08:57:01.491Z,16.1
2024-03-28T08:58:01.403Z,16.2
2024-03-28T08:59:01.384Z,16.4
2024-03-28T09:00:01.455Z,16.4
2024-03-28T09:01:01.374Z,16.4
2024-03-28T09:02:01.371Z,16.4
2024-03-28T09:03:01.396Z,16.3
2024-03-28T09:04:01.349Z,16.1
2024-03-28T09:05:01.384Z,15.9
2024-03-28T09:06:01.348Z,15.4
2024-03-28T09:07:01.439Z,14.8
2024-03-28T09:08:01.391Z,14.3
2024-03-28T09:09:01.357Z,14.4
2024-03-28T09:10:01.466Z,14.7
2024-03-28T09:11:01.393Z,14.9
2024-03-28T09:12:01.437Z,15.5
2024-03-28T09:13:01.354Z,15.5
2024-03-28T09:14:01.440Z,15.9
2024-03-28T09:15:01.357Z,16.1
2024-03-28T09:16:01.361Z,16.2
2024-03-28T09:17:01.386Z,16.2
2024-03-28T09:18:01.544Z,16.4
2024-03-28T09:19:01.363Z,16.3
2024-03-28T09:20:01.432Z,15.9
2024-03-28T09:21:01.448Z,15.8
2024-03-28T09:22:01.447Z,15.5
2024-03-28T09:23:01.336Z,15.8
2024-03-28T09:24:01.399Z,16.1
2024-03-28T09:25:01.357Z,16.3
2024-03-28T09:26:01.424Z,16.6
2024-03-28T09:27:01.359Z,16
2024-03-28T09:28:01.370Z,16.1
2024-03-28T09:29:01.397Z,15.8
2024-03-28T09:30:01.399Z,15.8
2024-03-28T09:31:01.491Z,15.9
2024-03-28T09:32:01.357Z,16.2
2024-03-28T09:33:01.498Z,16.3
2024-03-28T09:34:01.517Z,15.8
2024-03-28T09:36:01.413Z,15.8
2024-03-28T09:37:01.446Z,15.7
2024-03-28T09:38:01.417Z,15.8
2024-03-28T09:39:01.430Z,16.1
2024-03-28T09:40:05.527Z,16.2
2024-03-28T09:42:01.350Z,16.1
2024-03-28T09:43:01.376Z,16.3
2024-03-28T09:44:01.360Z,16.6
2024-03-28T09:45:01.363Z,16.7
2024-03-28T09:46:01.432Z,16.9
2024-03-28T09:47:01.339Z,17.1
2024-03-28T09:48:01.363Z,17.2
2024-03-28T09:49:01.456Z,16.7
2024-03-28T09:50:01.449Z,16.2
2024-03-28T09:51:01.449Z,16.4
2024-03-28T09:52:01.373Z,16.8
2024-03-28T09:53:01.431Z,17.2
2024-03-28T09:54:01.349Z,17.3
2024-03-28T09:55:01.419Z,17.1
2024-03-28T09:56:01.370Z,17.5
2024-03-28T09:57:01.399Z,17.6
2024-03-28T09:58:01.354Z,17.4
2024-03-28T09:59:01.461Z,17.8
2024-03-28T10:00:01.401Z,18.4
2024-03-28T10:01:01.390Z,18.6
2024-03-28T10:02:01.410Z,18.2
2024-03-28T10:03:01.519Z,18.1
2024-03-28T10:04:01.360Z,18.2
2024-03-28T10:05:01.441Z,18.2
2024-03-28T10:06:01.487Z,18.1
2024-03-28T10:07:01.355Z,18.5
2024-03-28T10:08:01.334Z,18.6
2024-03-28T10:09:01.356Z,18.7
2024-03-28T10:10:01.435Z,18.2
2024-03-28T10:11:01.361Z,17.6
2024-03-28T10:12:01.373Z,17.2
2024-03-28T10:13:01.397Z,17.4
2024-03-28T10:14:02.381Z,17.3
2024-03-28T10:16:01.425Z,16.1
2024-03-28T10:17:01.572Z,16.7
2024-03-28T10:18:01.320Z,16.5
2024-03-28T10:19:01.407Z,16.1
2024-03-28T10:20:01.407Z,15.5
2024-03-28T10:21:01.385Z,14.8
2024-03-28T10:23:01.451Z,14.8
2024-03-28T10:24:01.356Z,14.9
2024-03-28T10:25:01.384Z,15
2024-03-28T10:26:01.363Z,14.8
2024-03-28T10:28:01.376Z,14.3
2024-03-28T10:29:01.433Z,14.1
2024-03-28T10:30:01.371Z,14.1
2024-03-28T10:31:01.468Z,14.1
2024-03-28T10:32:01.384Z,14.1
2024-03-28T10:33:01.407Z,13.9
2024-03-28T10:34:01.462Z,13.8
2024-03-28T10:35:01.415Z,13.9
2024-03-28T10:36:01.384Z,13.9
2024-03-28T10:37:01.415Z,14.6
2024-03-28T10:38:20.656Z,14.6
2024-03-28T10:40:01.442Z,15.4
2024-03-28T10:41:01.478Z,15.1
2024-03-28T10:42:01.521Z,14.8
2024-03-28T10:43:01.372Z,14.8
2024-03-28T10:44:01.422Z,14.8
2024-03-28T10:45:01.443Z,14.8
2024-03-28T10:46:01.356Z,14.4
2024-03-28T10:47:01.481Z,14.2
2024-03-28T10:48:01.394Z,14.1
2024-03-28T10:49:01.541Z,14
2024-03-28T10:50:01.354Z,13.9
2024-03-28T10:51:01.394Z,13.8
2024-03-28T10:52:01.666Z,13.8
2024-03-28T10:54:23.967Z,13.8
2024-03-28T10:56:01.362Z,13.9
2024-03-28T10:57:01.350Z,14
2024-03-28T10:58:01.381Z,14
2024-03-28T10:59:01.405Z,14.1
2024-03-28T11:00:01.493Z,14.1
2024-03-28T11:01:16.343Z,14.1
2024-03-28T11:03:01.358Z,14.7
2024-03-28T11:04:01.343Z,14.9
2024-03-28T11:05:01.503Z,14.9
2024-03-28T11:07:01.402Z,14.9
2024-03-28T11:08:01.329Z,15.2
2024-03-28T11:09:01.442Z,15
2024-03-28T11:10:01.424Z,15
2024-03-28T11:11:01.317Z,14.9
2024-03-28T11:12:01.498Z,14.8
2024-03-28T11:13:01.376Z,14.7
2024-03-28T11:14:01.354Z,14.6
2024-03-28T11:15:01.378Z,14.6
2024-03-28T11:16:01.390Z,14.4
2024-03-28T11:17:01.393Z,14.2
2024-03-28T11:18:01.897Z,14.2
2024-03-28T11:19:01.253Z,14.1
2024-03-28T11:20:01.463Z,14.1
2024-03-28T11:21:01.320Z,14
2024-03-28T11:22:01.444Z,13.9
2024-03-28T11:23:01.366Z,13.9
2024-03-28T11:24:01.412Z,13.8
2024-03-28T11:25:01.345Z,13.9
2024-03-28T11:26:01.443Z,13.9
2024-03-28T11:27:01.417Z,13.9
2024-03-28T11:28:02.253Z,13.9
2024-03-28T11:30:01.482Z,13.6
2024-03-28T11:31:01.344Z,13.4
2024-03-28T11:32:01.395Z,13.4
2024-03-28T11:33:01.360Z,13.4
2024-03-28T11:34:01.329Z,13.3
2024-03-28T11:35:01.416Z,13.2
2024-03-28T11:36:01.545Z,13.1
2024-03-28T11:37:01.353Z,12.9
2024-03-28T11:38:01.415Z,12.9
2024-03-28T11:39:01.375Z,12.8
2024-03-28T11:40:01.412Z,12.4
2024-03-28T11:41:01.375Z,12.3
2024-03-28T11:42:01.379Z,12.3
2024-03-28T11:43:01.345Z,12.5
2024-03-28T11:44:01.456Z,12.1
2024-03-28T11:45:01.379Z,12
2024-03-28T11:46:01.456Z,11.9
2024-03-28T11:47:01.425Z,11.8
2024-03-28T11:48:01.455Z,11.7
2024-03-28T11:49:01.370Z,11.6
2024-03-28T11:50:01.501Z,11.5
2024-03-28T11:51:01.417Z,11.5
2024-03-28T11:52:01.446Z,11.4
2024-03-28T11:53:01.360Z,11.4
2024-03-28T11:54:05.974Z,11.4
2024-03-28T11:56:01.432Z,11.3
2024-03-28T11:57:01.409Z,11.3
2024-03-28T11:58:01.352Z,11.3
2024-03-28T11:59:01.413Z,11.4
2024-03-28T12:00:01.339Z,11.5
2024-03-28T12:01:01.391Z,11.5
2024-03-28T12:02:01.331Z,11.6
2024-03-28T12:03:01.411Z,11.6
2024-03-28T12:04:01.392Z,11.8
2024-03-28T12:05:01.614Z,11.8
2024-03-28T12:06:01.358Z,11.8
2024-03-28T12:07:01.417Z,11.8
2024-03-28T12:08:01.453Z,11.9
2024-03-28T12:09:01.372Z,11.9
2024-03-28T12:10:01.637Z,11.9
2024-03-28T12:12:01.396Z,12.1
2024-03-28T12:13:01.355Z,12
2024-03-28T12:14:01.383Z,12.1
2024-03-28T12:15:01.370Z,12
2024-03-28T12:16:01.346Z,12.1
2024-03-28T12:17:01.417Z,12.1
2024-03-28T12:19:01.448Z,12.2
2024-03-28T12:20:01.327Z,12.1
2024-03-28T12:21:01.387Z,12.1
2024-03-28T12:22:01.322Z,11.9
2024-03-28T12:23:01.382Z,11.9
2024-03-28T12:24:01.396Z,11.9
2024-03-28T12:25:01.750Z,11.9
2024-03-28T12:26:01.383Z,11.9
2024-03-28T12:27:01.377Z,12
2024-03-28T12:28:01.365Z,12.1
2024-03-28T12:29:01.470Z,12.3
2024-03-28T12:30:01.379Z,12.2
2024-03-28T12:31:01.384Z,12.3
2024-03-28T12:32:01.408Z,12.6
2024-03-28T12:33:01.371Z,12.8
2024-03-28T12:34:01.405Z,12.6
2024-03-28T12:35:01.349Z,12.6
2024-03-28T12:36:01.368Z,12.6
2024-03-28T12:37:01.401Z,12.4
2024-03-28T12:38:01.406Z,12.4
2024-03-28T12:39:01.452Z,12.4
2024-03-28T12:40:01.484Z,12.3
2024-03-28T12:41:01.419Z,12.5
2024-03-28T12:42:01.351Z,12.6
2024-03-28T12:43:01.403Z,12.8
2024-03-28T12:44:01.325Z,12.9
2024-03-28T12:45:24.651Z,13.1
2024-03-28T12:47:01.390Z,12.8
2024-03-28T12:48:01.365Z,12.6
2024-03-28T12:49:01.401Z,12.5
2024-03-28T12:50:01.372Z,12.4
2024-03-28T12:51:01.443Z,12.4
2024-03-28T12:52:01.365Z,12.4
2024-03-28T12:53:01.354Z,12.4
2024-03-28T12:54:01.391Z,12.2
2024-03-28T12:55:01.456Z,12.3
2024-03-28T12:56:01.336Z,12.2
2024-03-28T12:57:01.351Z,12.3
2024-03-28T12:58:01.395Z,12.4
2024-03-28T12:59:01.413Z,12.4
2024-03-28T13:00:01.465Z,12.4
2024-03-28T13:01:01.411Z,12.4
2024-03-28T13:02:01.378Z,12.3
2024-03-28T13:03:01.509Z,12.4
2024-03-28T13:04:01.336Z,12.4
2024-03-28T13:05:01.398Z,12.4
2024-03-28T13:06:01.451Z,0
2024-03-28T13:07:01.406Z,12.2
2024-03-28T13:08:01.337Z,12.2
2024-03-28T13:09:01.503Z,12.2
2024-03-28T13:10:01.393Z,12.2
2024-03-28T13:11:01.480Z,12.3
2024-03-28T13:12:01.398Z,12.3
2024-03-28T13:13:01.354Z,12.3
2024-03-28T13:14:01.396Z,12.2
2024-03-28T13:15:01.517Z,12.1
2024-03-28T13:16:01.370Z,12.1
2024-03-28T13:17:01.347Z,12.1
2024-03-28T13:18:01.404Z,12
2024-03-28T13:19:01.407Z,12.1
2024-03-28T13:20:01.412Z,12.1
2024-03-28T13:21:01.359Z,12
2024-03-28T13:22:01.370Z,12
2024-03-28T13:23:01.434Z,11.9
2024-03-28T13:24:01.351Z,12
2024-03-28T13:25:01.610Z,11.9
2024-03-28T13:28:01.443Z,11.6
2024-03-28T13:29:01.332Z,11.6
2024-03-28T13:30:01.412Z,11.5
2024-03-28T13:31:01.354Z,11.4
2024-03-28T13:32:01.365Z,11.4
2024-03-28T13:33:01.359Z,11.2
2024-03-28T13:34:01.362Z,11.2
2024-03-28T13:35:01.455Z,11.1
2024-03-28T13:36:01.468Z,11
2024-03-28T13:37:01.402Z,11
2024-03-28T13:38:01.407Z,11.1
2024-03-28T13:39:01.347Z,11
2024-03-28T13:40:01.423Z,10.9
2024-03-28T13:41:01.432Z,10.9
2024-03-28T13:42:01.401Z,10.9
2024-03-28T13:43:01.422Z,10.9
2024-03-28T13:44:01.398Z,10.9
2024-03-28T13:45:01.467Z,11.1
2024-03-28T13:46:01.364Z,11.1
2024-03-28T13:47:01.427Z,11.1
2024-03-28T13:48:01.358Z,11.2
2024-03-28T13:49:01.424Z,11.1
2024-03-28T13:50:01.541Z,11.1
2024-03-28T13:51:01.350Z,11.1
2024-03-28T13:52:01.395Z,11.1
2024-03-28T13:53:01.305Z,10.9
2024-03-28T13:54:01.408Z,10.9
2024-03-28T13:55:01.361Z,10.9
2024-03-28T13:56:01.418Z,10.9
2024-03-28T13:57:01.444Z,10.9
2024-03-28T13:58:01.355Z,11
2024-03-28T13:59:01.360Z,10.9
2024-03-28T14:00:01.449Z,10.9
2024-03-28T14:01:01.393Z,11.1
2024-03-28T14:02:01.339Z,11.3
2024-03-28T14:03:01.390Z,11.6
2024-03-28T14:04:01.371Z,11.9
2024-03-28T14:05:01.441Z,12.1
2024-03-28T14:06:01.388Z,12.2
2024-03-28T14:07:01.422Z,12.4
2024-03-28T14:08:01.423Z,12.5
2024-03-28T14:09:01.418Z,12.6
2024-03-28T14:10:01.358Z,12.8
2024-03-28T14:11:01.395Z,12.8
2024-03-28T14:13:01.388Z,12.4
2024-03-28T14:14:01.348Z,12.2
2024-03-28T14:15:01.461Z,12.1
2024-03-28T14:16:01.377Z,12.1
2024-03-28T14:17:01.386Z,12.1
2024-03-28T14:18:01.379Z,12.1
2024-03-28T14:20:01.403Z,12.1
2024-03-28T14:21:01.375Z,12.1
2024-03-28T14:22:01.400Z,12.2
2024-03-28T14:23:01.338Z,12.1
2024-03-28T14:24:01.351Z,12
2024-03-28T14:25:01.434Z,12.1